createdAt,value
2023-03-18T00:00:17.623Z,928.46
2023-03-18T00:01:17.560Z,928.46
2023-03-18T00:02:17.835Z,928.50
2023-03-18T00:03:17.723Z,928.51
2023-03-18T00:04:17.576Z,928.55
2023-03-18T00:05:17.580Z,928.58
2023-03-18T00:06:17.549Z,928.60
2023-03-18T00:07:17.494Z,928.62
2023-03-18T00:08:17.498Z,928.63
2023-03-18T00:09:17.516Z,928.64
2023-03-18T00:10:17.470Z,928.64
2023-03-18T00:11:17.518Z,928.63
2023-03-18T00:12:17.439Z,928.66
2023-03-18T00:13:17.493Z,928.66
2023-03-18T00:14:17.438Z,928.67
2023-03-18T00:15:18.428Z,928.67
2023-03-18T00:16:17.543Z,928.71
2023-03-18T00:17:17.422Z,928.70
2023-03-18T00:18:17.365Z,928.71
2023-03-18T00:19:17.428Z,928.73
2023-03-18T00:20:17.377Z,928.76
2023-03-18T00:21:17.555Z,928.78
2023-03-18T00:22:17.391Z,928.80
2023-03-18T00:23:17.351Z,928.76
2023-03-18T00:24:17.361Z,928.83
2023-03-18T00:25:17.411Z,928.85
2023-03-18T00:26:17.358Z,928.84
2023-03-18T00:27:18.078Z,928.83
2023-03-18T00:28:18.863Z,928.87
2023-03-18T00:29:17.396Z,928.87
2023-03-18T00:30:17.275Z,928.89
2023-03-18T00:31:17.353Z,928.92
2023-03-18T00:32:17.408Z,928.91
2023-03-18T00:33:17.294Z,928.90
2023-03-18T00:34:17.265Z,928.90
2023-03-18T00:35:17.271Z,928.91
2023-03-18T00:36:17.217Z,928.87
2023-03-18T00:37:17.218Z,928.85
2023-03-18T00:38:17.228Z,928.87
2023-03-18T00:39:17.234Z,928.87
2023-03-18T00:40:17.344Z,928.88
2023-03-18T00:41:17.202Z,928.91
2023-03-18T00:42:17.161Z,928.89
2023-03-18T00:43:17.168Z,928.89
2023-03-18T00:44:17.167Z,928.89
2023-03-18T00:45:17.262Z,928.91
2023-03-18T00:46:17.139Z,928.89
2023-03-18T00:47:17.082Z,928.95
2023-03-18T00:48:17.203Z,928.92
2023-03-18T00:49:17.130Z,928.95
2023-03-18T00:50:17.113Z,928.97
2023-03-18T00:51:17.236Z,928.99
2023-03-18T00:52:17.072Z,928.93
2023-03-18T00:53:17.021Z,928.95
2023-03-18T00:54:17.039Z,928.96
2023-03-18T00:55:17.067Z,928.96
2023-03-18T00:56:17.047Z,928.97
2023-03-18T00:57:17.052Z,928.96
2023-03-18T00:58:16.966Z,928.95
2023-03-18T00:59:16.962Z,929.00
2023-03-18T01:00:17.104Z,928.99
2023-03-18T01:01:17.142Z,929.01
2023-03-18T01:02:17.064Z,928.99
2023-03-18T01:03:16.949Z,929.01
2023-03-18T01:04:17.007Z,929.03
2023-03-18T01:05:17.012Z,929.02
2023-03-18T01:06:17.007Z,929.03
2023-03-18T01:07:16.924Z,929.05
2023-03-18T01:08:17.023Z,929.04
2023-03-18T01:09:16.932Z,929.05
2023-03-18T01:10:16.887Z,929.10
2023-03-18T01:11:17.412Z,929.06
2023-03-18T01:12:16.950Z,929.07
2023-03-18T01:13:16.962Z,929.05
2023-03-18T01:14:16.885Z,929.05
2023-03-18T01:15:16.890Z,929.05
2023-03-18T01:16:16.940Z,929.02
2023-03-18T01:17:16.878Z,929.03
2023-03-18T01:18:16.798Z,929.04
2023-03-18T01:19:17.080Z,929.04
2023-03-18T01:20:16.803Z,929.05
2023-03-18T01:21:16.895Z,929.08
2023-03-18T01:22:16.820Z,929.08
2023-03-18T01:23:16.815Z,929.06
2023-03-18T01:24:16.738Z,929.05
2023-03-18T01:25:16.906Z,929.04
2023-03-18T01:26:16.648Z,929.05
2023-03-18T01:27:16.747Z,929.05
2023-03-18T01:28:16.724Z,929.06
2023-03-18T01:29:17.389Z,929.07
2023-03-18T01:30:16.667Z,929.06
2023-03-18T01:31:16.721Z,929.07
2023-03-18T01:32:16.577Z,929.07
2023-03-18T01:33:16.599Z,929.09
2023-03-18T01:34:16.649Z,929.08
2023-03-18T01:35:16.597Z,929.08
2023-03-18T01:36:16.562Z,929.07
2023-03-18T01:37:16.564Z,929.09
2023-03-18T01:38:16.517Z,929.08
2023-03-18T01:39:16.513Z,929.06
2023-03-18T01:40:16.522Z,929.06
2023-03-18T01:41:16.490Z,929.05
2023-03-18T01:42:16.502Z,929.05
2023-03-18T01:43:16.498Z,929.04
2023-03-18T01:44:16.519Z,929.02
2023-03-18T01:45:16.586Z,929.00
2023-03-18T01:46:16.457Z,929.01
2023-03-18T01:47:16.434Z,928.98
2023-03-18T01:48:16.482Z,929.00
2023-03-18T01:49:16.433Z,929.00
2023-03-18T01:50:16.333Z,928.97
2023-03-18T01:51:16.341Z,928.96
2023-03-18T01:52:16.454Z,928.98
2023-03-18T01:53:16.506Z,928.96
2023-03-18T01:54:16.373Z,928.94
2023-03-18T01:55:16.418Z,928.91
2023-03-18T01:56:16.274Z,928.90
2023-03-18T01:57:16.274Z,928.88
2023-03-18T01:58:16.335Z,928.89
2023-03-18T01:59:16.295Z,928.88
2023-03-18T02:00:16.302Z,928.87
2023-03-18T02:01:16.373Z,928.86
2023-03-18T02:02:16.348Z,928.86
2023-03-18T02:03:16.270Z,928.90
2023-03-18T02:04:21.080Z,928.90
2023-03-18T02:05:16.250Z,928.87
2023-03-18T02:06:16.293Z,928.88
2023-03-18T02:07:16.245Z,928.89
2023-03-18T02:08:16.150Z,928.94
2023-03-18T02:09:16.214Z,928.90
2023-03-18T02:10:16.209Z,928.90
2023-03-18T02:11:16.228Z,928.92
2023-03-18T02:12:16.230Z,928.86
2023-03-18T02:13:16.227Z,928.88
2023-03-18T02:14:16.132Z,928.90
2023-03-18T02:15:16.244Z,928.89
2023-03-18T02:16:16.161Z,928.89
2023-03-18T02:17:16.149Z,928.91
2023-03-18T02:18:16.169Z,928.89
2023-03-18T02:19:16.173Z,928.92
2023-03-18T02:20:16.079Z,928.94
2023-03-18T02:21:16.646Z,928.95
2023-03-18T02:22:16.114Z,928.94
2023-03-18T02:23:16.094Z,928.93
2023-03-18T02:24:16.111Z,928.95
2023-03-18T02:25:15.964Z,928.95
2023-03-18T02:26:15.981Z,928.95
2023-03-18T02:27:16.011Z,928.96
2023-03-18T02:28:15.988Z,928.89
2023-03-18T02:29:15.967Z,928.95
2023-03-18T02:30:15.933Z,928.93
2023-03-18T02:31:15.936Z,928.97
2023-03-18T02:32:16.015Z,928.91
2023-03-18T02:33:15.896Z,928.94
2023-03-18T02:34:15.931Z,928.98
2023-03-18T02:35:15.935Z,928.98
2023-03-18T02:36:15.873Z,929.00
2023-03-18T02:37:15.821Z,928.99
2023-03-18T02:38:15.826Z,928.99
2023-03-18T02:39:15.826Z,928.99
2023-03-18T02:40:15.832Z,928.99
2023-03-18T02:41:15.841Z,928.97
2023-03-18T02:42:15.817Z,928.97
2023-03-18T02:43:15.783Z,928.98
2023-03-18T02:44:15.916Z,928.98
2023-03-18T02:45:15.769Z,928.99
2023-03-18T02:46:15.853Z,928.98
2023-03-18T02:47:15.740Z,928.97
2023-03-18T02:48:15.742Z,929.01
2023-03-18T02:49:15.689Z,929.03
2023-03-18T02:50:15.701Z,929.02
2023-03-18T02:51:15.710Z,929.03
2023-03-18T02:52:15.668Z,929.02
2023-03-18T02:53:15.689Z,929.02
2023-03-18T02:54:15.736Z,929.02
2023-03-18T02:55:15.638Z,929.02
2023-03-18T02:56:15.639Z,929.03
2023-03-18T02:57:15.653Z,929.01
2023-03-18T02:58:15.607Z,929.00
2023-03-18T02:59:15.658Z,928.99
2023-03-18T03:00:15.563Z,928.97
2023-03-18T03:01:15.608Z,928.98
2023-03-18T03:02:15.674Z,928.95
2023-03-18T03:03:15.770Z,928.94
2023-03-18T03:04:15.585Z,928.93
2023-03-18T03:05:15.968Z,928.92
2023-03-18T03:06:15.556Z,928.91
2023-03-18T03:07:15.513Z,928.92
2023-03-18T03:08:15.519Z,928.92
2023-03-18T03:09:15.529Z,928.92
2023-03-18T03:10:15.484Z,928.93
2023-03-18T03:11:16.457Z,928.93
2023-03-18T03:12:15.444Z,928.93
2023-03-18T03:13:15.452Z,928.92
2023-03-18T03:14:15.522Z,928.93
2023-03-18T03:15:15.521Z,928.93
2023-03-18T03:16:15.474Z,928.94
2023-03-18T03:17:15.476Z,928.95
2023-03-18T03:18:15.448Z,928.96
2023-03-18T03:19:15.650Z,928.95
2023-03-18T03:20:15.467Z,928.96
2023-03-18T03:21:15.465Z,928.95
2023-03-18T03:22:15.409Z,928.96
2023-03-18T03:23:15.416Z,928.95
2023-03-18T03:24:15.417Z,928.95
2023-03-18T03:25:15.446Z,928.94
2023-03-18T03:26:15.432Z,928.93
2023-03-18T03:27:15.447Z,928.91
2023-03-18T03:28:15.369Z,928.88
2023-03-18T03:29:15.338Z,928.86
2023-03-18T03:30:15.356Z,928.85
2023-03-18T03:31:15.564Z,928.85
2023-03-18T03:32:15.395Z,928.87
2023-03-18T03:33:15.706Z,928.88
2023-03-18T03:34:15.317Z,928.89
2023-03-18T03:35:15.292Z,928.89
2023-03-18T03:36:15.301Z,928.88
2023-03-18T03:37:15.330Z,928.88
2023-03-18T03:38:15.330Z,928.87
2023-03-18T03:39:15.413Z,928.85
2023-03-18T03:40:15.229Z,928.84
2023-03-18T03:41:15.231Z,928.83
2023-03-18T03:42:15.555Z,928.83
2023-03-18T03:43:15.246Z,928.83
2023-03-18T03:44:15.349Z,928.82
2023-03-18T03:45:15.152Z,928.84
2023-03-18T03:46:15.200Z,928.86
2023-03-18T03:47:15.162Z,928.86
2023-03-18T03:48:16.003Z,928.85
2023-03-18T03:49:15.175Z,928.84
2023-03-18T03:50:15.177Z,928.82
2023-03-18T03:51:15.106Z,928.79
2023-03-18T03:52:15.089Z,928.77
2023-03-18T03:53:15.101Z,928.77
2023-03-18T03:54:15.098Z,928.76
2023-03-18T03:55:15.107Z,928.75
2023-03-18T03:56:15.116Z,928.75
2023-03-18T03:57:15.020Z,928.75
2023-03-18T03:58:15.063Z,928.74
2023-03-18T03:59:15.051Z,928.75
2023-03-18T04:00:15.041Z,928.74
2023-03-18T04:01:14.943Z,928.75
2023-03-18T04:02:15.018Z,928.76
2023-03-18T04:03:14.954Z,928.77
2023-03-18T04:04:15.014Z,928.77
2023-03-18T04:05:14.965Z,928.77
2023-03-18T04:06:15.480Z,928.76
2023-03-18T04:07:14.879Z,928.76
2023-03-18T04:08:14.896Z,928.75
2023-03-18T04:09:14.894Z,928.73
2023-03-18T04:10:14.913Z,928.73
2023-03-18T04:11:14.907Z,928.70
2023-03-18T04:12:14.919Z,928.68
2023-03-18T04:13:14.823Z,928.66
2023-03-18T04:14:14.931Z,928.64
2023-03-18T04:15:14.826Z,928.62
2023-03-18T04:16:14.930Z,928.62
2023-03-18T04:17:14.839Z,928.63
2023-03-18T04:18:14.771Z,928.64
2023-03-18T04:19:14.758Z,928.65
2023-03-18T04:20:14.789Z,928.65
2023-03-18T04:21:14.706Z,928.65
2023-03-18T04:22:14.780Z,928.66
2023-03-18T04:23:14.785Z,928.67
2023-03-18T04:24:14.727Z,928.66
2023-03-18T04:25:14.728Z,928.66
2023-03-18T04:26:14.718Z,928.63
2023-03-18T04:27:14.740Z,928.63
2023-03-18T04:28:14.716Z,928.61
2023-03-18T04:29:14.740Z,928.61
2023-03-18T04:30:14.629Z,928.62
2023-03-18T04:31:14.681Z,928.64
2023-03-18T04:32:14.583Z,928.64
2023-03-18T04:33:14.780Z,928.64
2023-03-18T04:34:14.657Z,928.64
2023-03-18T04:35:14.654Z,928.64
2023-03-18T04:36:14.687Z,928.61
2023-03-18T04:37:14.619Z,928.60
2023-03-18T04:38:14.579Z,928.58
2023-03-18T04:39:14.585Z,928.56
2023-03-18T04:40:14.596Z,928.54
2023-03-18T04:41:14.591Z,928.53
2023-03-18T04:42:14.504Z,928.52
2023-03-18T04:43:14.506Z,928.51
2023-03-18T04:44:14.504Z,928.50
2023-03-18T04:45:14.518Z,928.48
2023-03-18T04:46:14.646Z,928.47
2023-03-18T04:47:14.438Z,928.46
2023-03-18T04:48:14.433Z,928.46
2023-03-18T04:49:14.492Z,928.47
2023-03-18T04:50:14.458Z,928.48
2023-03-18T04:51:14.617Z,928.48
2023-03-18T04:52:14.572Z,928.49
2023-03-18T04:53:14.369Z,928.50
2023-03-18T04:54:14.384Z,928.50
2023-03-18T04:55:14.379Z,928.50
2023-03-18T04:56:14.385Z,928.50
2023-03-18T04:57:14.400Z,928.49
2023-03-18T04:58:14.412Z,928.48
2023-03-18T04:59:14.316Z,928.47
2023-03-18T05:00:14.318Z,928.47
2023-03-18T05:01:14.432Z,928.46
2023-03-18T05:02:14.285Z,928.47
2023-03-18T05:03:14.325Z,928.47
2023-03-18T05:04:14.348Z,928.48
2023-03-18T05:05:14.444Z,928.49
2023-03-18T05:06:14.244Z,928.48
2023-03-18T05:07:14.185Z,928.46
2023-03-18T05:08:14.199Z,928.44
2023-03-18T05:09:14.231Z,928.43
2023-03-18T05:10:14.205Z,928.41
2023-03-18T05:11:14.225Z,928.38
2023-03-18T05:12:14.180Z,928.35
2023-03-18T05:13:14.134Z,928.32
2023-03-18T05:14:14.140Z,928.29
2023-03-18T05:15:14.209Z,928.29
2023-03-18T05:16:14.216Z,928.28
2023-03-18T05:17:14.162Z,928.27
2023-03-18T05:18:14.225Z,928.27
2023-03-18T05:19:14.135Z,928.27
2023-03-18T05:20:14.196Z,928.27
2023-03-18T05:21:14.104Z,928.28
2023-03-18T05:22:14.107Z,928.28
2023-03-18T05:23:14.153Z,928.28
2023-03-18T05:24:14.067Z,928.28
2023-03-18T05:25:14.040Z,928.28
2023-03-18T05:26:14.052Z,928.28
2023-03-18T05:27:14.102Z,928.27
2023-03-18T05:28:14.060Z,928.27
2023-03-18T05:29:14.064Z,928.27
2023-03-18T05:30:14.001Z,928.28
2023-03-18T05:31:13.977Z,928.28
2023-03-18T05:32:13.985Z,928.29
2023-03-18T05:33:14.071Z,928.30
2023-03-18T05:34:13.998Z,928.31
2023-03-18T05:35:13.905Z,928.30
2023-03-18T05:36:13.958Z,928.30
2023-03-18T05:37:14.081Z,928.31
2023-03-18T05:38:13.959Z,928.30
2023-03-18T05:39:13.924Z,928.29
2023-03-18T05:40:13.991Z,928.28
2023-03-18T05:41:13.879Z,928.27
2023-03-18T05:42:13.878Z,928.27
2023-03-18T05:43:13.895Z,928.26
2023-03-18T05:44:13.891Z,928.26
2023-03-18T05:45:13.900Z,928.26
2023-03-18T05:46:13.966Z,928.25
2023-03-18T05:47:13.811Z,928.24
2023-03-18T05:48:13.816Z,928.24
2023-03-18T05:49:13.936Z,928.25
2023-03-18T05:50:13.937Z,928.24
2023-03-18T05:51:13.837Z,928.24
2023-03-18T05:52:13.848Z,928.22
2023-03-18T05:53:13.752Z,928.22
2023-03-18T05:54:13.719Z,928.22
2023-03-18T05:55:14.530Z,928.22
2023-03-18T05:56:13.776Z,928.22
2023-03-18T05:57:13.795Z,928.22
2023-03-18T05:58:13.708Z,928.22
2023-03-18T05:59:13.708Z,928.22
2023-03-18T06:00:13.698Z,928.23
2023-03-18T06:01:13.705Z,928.23
2023-03-18T06:02:13.705Z,928.24
2023-03-18T06:03:13.622Z,928.25
2023-03-18T06:04:13.743Z,928.24
2023-03-18T06:05:13.637Z,928.24
2023-03-18T06:06:13.639Z,928.25
2023-03-18T06:07:13.756Z,928.27
2023-03-18T06:08:13.704Z,928.28
2023-03-18T06:09:13.607Z,928.29
2023-03-18T06:10:13.613Z,928.29
2023-03-18T06:11:13.956Z,928.28
2023-03-18T06:12:13.635Z,928.27
2023-03-18T06:13:13.562Z,928.27
2023-03-18T06:14:13.559Z,928.26
2023-03-18T06:15:13.555Z,928.24
2023-03-18T06:16:13.561Z,928.23
2023-03-18T06:17:13.559Z,928.22
2023-03-18T06:18:13.540Z,928.20
2023-03-18T06:19:13.551Z,928.19
2023-03-18T06:20:13.569Z,928.18
2023-03-18T06:21:13.464Z,928.15
2023-03-18T06:22:13.491Z,928.14
2023-03-18T06:23:13.571Z,928.12
2023-03-18T06:24:13.488Z,928.10
2023-03-18T06:25:13.586Z,928.08
2023-03-18T06:26:14.269Z,928.07
2023-03-18T06:27:13.403Z,928.06
2023-03-18T06:28:13.510Z,928.05
2023-03-18T06:29:13.524Z,928.04
2023-03-18T06:30:13.429Z,928.04
2023-03-18T06:31:13.641Z,928.03
2023-03-18T06:32:13.391Z,928.01
2023-03-18T06:33:13.299Z,927.99
2023-03-18T06:34:13.306Z,927.97
2023-03-18T06:35:13.310Z,927.96
2023-03-18T06:36:13.425Z,927.95
2023-03-18T06:37:13.375Z,927.96
2023-03-18T06:38:13.277Z,927.96
2023-03-18T06:39:13.272Z,927.96
2023-03-18T06:40:13.428Z,927.97
2023-03-18T06:41:13.335Z,927.97
2023-03-18T06:42:13.321Z,927.95
2023-03-18T06:43:13.287Z,927.94
2023-03-18T06:44:13.312Z,927.93
2023-03-18T06:45:13.277Z,927.92
2023-03-18T06:46:13.327Z,927.91
2023-03-18T06:47:13.232Z,927.91
2023-03-18T06:48:13.186Z,927.92
2023-03-18T06:49:13.226Z,927.95
2023-03-18T06:50:13.154Z,927.97
2023-03-18T06:51:13.306Z,928.00
2023-03-18T06:52:13.210Z,928.02
2023-03-18T06:53:13.173Z,928.04
2023-03-18T06:54:13.080Z,928.03
2023-03-18T06:55:13.160Z,928.02
2023-03-18T06:56:13.090Z,928.01
2023-03-18T06:57:13.150Z,928.00
2023-03-18T06:58:13.814Z,928.01
2023-03-18T06:59:13.157Z,928.02
2023-03-18T07:00:13.068Z,928.04
2023-03-18T07:01:13.241Z,928.07
2023-03-18T07:02:13.017Z,928.09
2023-03-18T07:03:13.182Z,928.10
2023-03-18T07:04:13.074Z,928.09
2023-03-18T07:05:13.133Z,928.08
2023-03-18T07:06:13.155Z,928.07
2023-03-18T07:07:13.189Z,928.06
2023-03-18T07:08:13.026Z,928.05
2023-03-18T07:09:13.109Z,928.05
2023-03-18T07:10:12.929Z,928.05
2023-03-18T07:11:12.998Z,928.04
2023-03-18T07:12:13.035Z,928.04
2023-03-18T07:13:12.933Z,928.04
2023-03-18T07:14:12.906Z,928.03
2023-03-18T07:15:12.924Z,928.02
2023-03-18T07:16:13.010Z,928.02
2023-03-18T07:17:12.862Z,928.02
2023-03-18T07:18:12.931Z,928.02
2023-03-18T07:19:12.901Z,928.02
2023-03-18T07:20:12.886Z,928.02
2023-03-18T07:21:12.883Z,928.02
2023-03-18T07:22:12.824Z,928.01
2023-03-18T07:23:13.622Z,928.00
2023-03-18T07:24:12.801Z,927.99
2023-03-18T07:25:12.810Z,927.98
2023-03-18T07:26:12.937Z,927.98
2023-03-18T07:27:12.854Z,927.98
2023-03-18T07:28:12.829Z,927.99
2023-03-18T07:29:12.766Z,928.00
2023-03-18T07:30:12.873Z,928.01
2023-03-18T07:31:13.033Z,928.01
2023-03-18T07:32:12.690Z,928.01
2023-03-18T07:33:12.857Z,928.02
2023-03-18T07:34:12.732Z,928.02
2023-03-18T07:35:12.702Z,928.03
2023-03-18T07:36:12.748Z,928.05
2023-03-18T07:37:12.707Z,928.06
2023-03-18T07:38:12.627Z,928.07
2023-03-18T07:39:12.724Z,928.08
2023-03-18T07:40:12.734Z,928.09
2023-03-18T07:41:12.606Z,928.09
2023-03-18T07:42:12.659Z,928.09
2023-03-18T07:43:12.619Z,928.08
2023-03-18T07:44:12.543Z,928.08
2023-03-18T07:45:12.530Z,928.07
2023-03-18T07:46:12.557Z,928.07
2023-03-18T07:47:12.511Z,928.08
2023-03-18T07:48:12.519Z,928.08
2023-03-18T07:49:12.578Z,928.07
2023-03-18T07:50:12.533Z,928.08
2023-03-18T07:51:12.441Z,928.07
2023-03-18T07:52:12.501Z,928.07
2023-03-18T07:53:12.517Z,928.07
2023-03-18T07:54:12.627Z,928.07
2023-03-18T07:55:12.365Z,928.06
2023-03-18T07:56:12.394Z,928.06
2023-03-18T07:57:12.431Z,928.07
2023-03-18T07:58:12.387Z,928.07
2023-03-18T07:59:12.441Z,928.10
2023-03-18T08:00:12.473Z,928.12
2023-03-18T08:01:13.906Z,928.13
2023-03-18T08:02:12.352Z,928.15
2023-03-18T08:03:12.334Z,928.16
2023-03-18T08:04:12.404Z,928.17
2023-03-18T08:05:12.425Z,928.19
2023-03-18T08:06:12.377Z,928.21
2023-03-18T08:07:12.390Z,928.24
2023-03-18T08:08:12.391Z,928.26
2023-03-18T08:09:12.322Z,928.29
2023-03-18T08:10:12.308Z,928.31
2023-03-18T08:11:12.312Z,928.33
2023-03-18T08:12:12.317Z,928.33
2023-03-18T08:13:12.443Z,928.33
2023-03-18T08:14:12.305Z,928.33
2023-03-18T08:15:12.340Z,928.34
2023-03-18T08:16:12.361Z,928.35
2023-03-18T08:17:12.265Z,928.36
2023-03-18T08:18:12.252Z,928.37
2023-03-18T08:19:12.287Z,928.38
2023-03-18T08:20:12.300Z,928.40
2023-03-18T08:21:12.194Z,928.41
2023-03-18T08:22:12.218Z,928.43
2023-03-18T08:23:12.194Z,928.44
2023-03-18T08:24:12.203Z,928.46
2023-03-18T08:25:12.143Z,928.46
2023-03-18T08:26:12.257Z,928.46
2023-03-18T08:27:12.108Z,928.46
2023-03-18T08:28:12.120Z,928.46
2023-03-18T08:29:12.217Z,928.47
2023-03-18T08:30:12.070Z,928.46
2023-03-18T08:31:12.211Z,928.45
2023-03-18T08:32:12.141Z,928.45
2023-03-18T08:33:12.086Z,928.46
2023-03-18T08:34:12.052Z,928.45
2023-03-18T08:35:11.998Z,928.45
2023-03-18T08:36:12.057Z,928.46
2023-03-18T08:37:12.066Z,928.48
2023-03-18T08:38:12.076Z,928.49
2023-03-18T08:39:11.979Z,928.50
2023-03-18T08:40:12.106Z,928.51
2023-03-18T08:41:12.019Z,928.52
2023-03-18T08:42:12.010Z,928.50
2023-03-18T08:43:12.021Z,928.49
2023-03-18T08:44:11.932Z,928.47
2023-03-18T08:45:11.922Z,928.47
2023-03-18T08:46:12.044Z,928.47
2023-03-18T08:47:11.929Z,928.48
2023-03-18T08:48:11.940Z,928.49
2023-03-18T08:49:11.939Z,928.48
2023-03-18T08:50:11.982Z,928.49
2023-03-18T08:51:11.848Z,928.50
2023-03-18T08:52:11.876Z,928.50
2023-03-18T08:53:12.069Z,928.50
2023-03-18T08:54:11.869Z,928.52
2023-03-18T08:55:11.875Z,928.53
2023-03-18T08:56:11.782Z,928.53
2023-03-18T08:57:11.781Z,928.52
2023-03-18T08:58:11.807Z,928.50
2023-03-18T08:59:11.807Z,928.52
2023-03-18T09:00:11.760Z,928.52
2023-03-18T09:01:12.105Z,928.51
2023-03-18T09:02:11.721Z,928.50
2023-03-18T09:03:11.759Z,928.50
2023-03-18T09:04:11.728Z,928.48
2023-03-18T09:05:11.757Z,928.50
2023-03-18T09:06:11.741Z,928.50
2023-03-18T09:07:11.656Z,928.50
2023-03-18T09:08:11.609Z,928.50
2023-03-18T09:09:11.625Z,928.50
2023-03-18T09:10:11.617Z,928.52
2023-03-18T09:11:11.576Z,928.53
2023-03-18T09:12:11.576Z,928.53
2023-03-18T09:13:11.591Z,928.55
2023-03-18T09:14:11.593Z,928.55
2023-03-18T09:15:11.606Z,928.58
2023-03-18T09:16:11.556Z,928.58
2023-03-18T09:17:11.528Z,928.61
2023-03-18T09:18:12.699Z,928.62
2023-03-18T09:19:11.526Z,928.64
2023-03-18T09:20:11.538Z,928.66
2023-03-18T09:21:11.655Z,928.66
2023-03-18T09:22:11.456Z,928.67
2023-03-18T09:23:11.459Z,928.68
2023-03-18T09:24:11.462Z,928.69
2023-03-18T09:25:11.410Z,928.72
2023-03-18T09:26:11.413Z,928.76
2023-03-18T09:27:11.478Z,928.78
2023-03-18T09:28:11.397Z,928.78
2023-03-18T09:29:11.755Z,928.80
2023-03-18T09:30:11.599Z,928.80
2023-03-18T09:31:11.442Z,928.79
2023-03-18T09:32:11.407Z,928.76
2023-03-18T09:33:11.524Z,928.77
2023-03-18T09:34:11.324Z,928.77
2023-03-18T09:35:13.245Z,928.79
2023-03-18T09:36:11.387Z,928.80
2023-03-18T09:37:11.352Z,928.81
2023-03-18T09:38:11.368Z,928.83
2023-03-18T09:39:11.358Z,928.83
2023-03-18T09:40:11.269Z,928.81
2023-03-18T09:41:11.279Z,928.80
2023-03-18T09:42:11.274Z,928.81
2023-03-18T09:43:11.280Z,928.80
2023-03-18T09:44:11.286Z,928.79
2023-03-18T09:45:11.295Z,928.81
2023-03-18T09:46:11.343Z,928.80
2023-03-18T09:47:11.395Z,928.80
2023-03-18T09:48:11.234Z,928.82
2023-03-18T09:49:11.259Z,928.82
2023-03-18T09:50:11.249Z,928.84
2023-03-18T09:51:12.153Z,928.88
2023-03-18T09:52:11.151Z,928.89
2023-03-18T09:53:11.149Z,928.90
2023-03-18T09:54:11.152Z,928.91
2023-03-18T09:55:11.160Z,928.92
2023-03-18T09:56:11.173Z,928.92
2023-03-18T09:57:11.184Z,928.94
2023-03-18T09:58:11.084Z,928.98
2023-03-18T09:59:11.090Z,928.95
2023-03-18T10:00:11.110Z,928.96
2023-03-18T10:01:11.140Z,928.97
2023-03-18T10:02:11.034Z,928.96
2023-03-18T10:03:11.091Z,928.95
2023-03-18T10:04:11.113Z,929.00
2023-03-18T10:05:11.008Z,929.01
2023-03-18T10:06:11.044Z,929.03
2023-03-18T10:07:11.005Z,929.01
2023-03-18T10:08:11.018Z,929.00
2023-03-18T10:09:11.032Z,929.01
2023-03-18T10:10:10.979Z,929.03
2023-03-18T10:11:10.941Z,929.06
2023-03-18T10:12:10.932Z,929.08
2023-03-18T10:13:10.891Z,929.09
2023-03-18T10:14:10.998Z,929.12
2023-03-18T10:15:10.927Z,929.15
2023-03-18T10:16:11.062Z,929.17
2023-03-18T10:17:10.974Z,929.16
2023-03-18T10:18:10.903Z,929.17
2023-03-18T10:19:10.921Z,929.17
2023-03-18T10:20:10.933Z,929.19
2023-03-18T10:21:10.849Z,929.15
2023-03-18T10:22:10.022Z,929.18
2023-03-18T10:23:11.051Z,929.16
2023-03-18T10:24:10.854Z,929.17
2023-03-18T10:25:10.974Z,929.13
2023-03-18T10:26:10.820Z,929.14
2023-03-18T10:27:10.874Z,929.15
2023-03-18T10:28:10.777Z,929.16
2023-03-18T10:29:10.802Z,929.19
2023-03-18T10:30:10.750Z,929.20
2023-03-18T10:31:10.927Z,929.21
2023-03-18T10:32:11.020Z,929.19
2023-03-18T10:33:11.677Z,929.23
2023-03-18T10:34:10.831Z,929.20
2023-03-18T10:35:10.800Z,929.21
2023-03-18T10:36:10.826Z,929.23
2023-03-18T10:37:10.846Z,929.22
2023-03-18T10:38:10.869Z,929.23
2023-03-18T10:39:10.840Z,929.24
2023-03-18T10:40:11.549Z,929.25
2023-03-18T10:41:10.748Z,929.28
2023-03-18T10:42:10.650Z,929.31
2023-03-18T10:43:10.840Z,929.34
2023-03-18T10:44:10.665Z,929.35
2023-03-18T10:45:10.749Z,929.35
2023-03-18T10:46:10.892Z,929.40
2023-03-18T10:47:10.814Z,929.40
2023-03-18T10:48:10.590Z,929.40
2023-03-18T10:49:10.706Z,929.42
2023-03-18T10:50:10.601Z,929.43
2023-03-18T10:51:10.685Z,929.46
2023-03-18T10:52:10.588Z,929.47
2023-03-18T10:53:10.495Z,929.48
2023-03-18T10:54:10.559Z,929.47
2023-03-18T10:55:10.548Z,929.48
2023-03-18T10:56:10.552Z,929.55
2023-03-18T10:57:10.476Z,929.53
2023-03-18T10:58:10.424Z,929.64
2023-03-18T10:59:10.529Z,929.53
2023-03-18T11:00:10.474Z,929.58
2023-03-18T11:01:10.480Z,929.57
2023-03-18T11:02:10.546Z,929.56
2023-03-18T11:03:12.365Z,929.57
2023-03-18T11:04:11.827Z,929.57
2023-03-18T11:05:10.377Z,929.58
2023-03-18T11:06:10.377Z,929.55
2023-03-18T11:07:10.386Z,929.57
2023-03-18T11:08:10.328Z,929.58
2023-03-18T11:09:10.736Z,929.57
2023-03-18T11:10:10.316Z,929.54
2023-03-18T11:11:11.167Z,929.55
2023-03-18T11:12:10.253Z,929.56
2023-03-18T11:13:10.324Z,929.55
2023-03-18T11:14:10.269Z,929.56
2023-03-18T11:15:10.379Z,929.53
2023-03-18T11:16:10.317Z,929.55
2023-03-18T11:17:10.273Z,929.55
2023-03-18T11:18:10.268Z,929.55
2023-03-18T11:19:10.266Z,929.55
2023-03-18T11:20:10.270Z,929.55
2023-03-18T11:21:10.829Z,929.56
2023-03-18T11:22:10.329Z,929.58
2023-03-18T11:23:10.128Z,929.61
2023-03-18T11:24:10.430Z,929.60
2023-03-18T11:25:10.200Z,929.62
2023-03-18T11:26:10.218Z,929.60
2023-03-18T11:27:10.216Z,929.62
2023-03-18T11:28:10.251Z,929.61
2023-03-18T11:29:10.090Z,929.65
2023-03-18T11:30:10.128Z,929.65
2023-03-18T11:31:10.168Z,929.67
2023-03-18T11:32:10.130Z,929.63
2023-03-18T11:33:10.202Z,929.64
2023-03-18T11:34:10.070Z,929.63
2023-03-18T11:35:10.273Z,929.65
2023-03-18T11:36:10.170Z,929.64
2023-03-18T11:37:10.071Z,929.65
2023-03-18T11:38:10.020Z,929.63
2023-03-18T11:39:10.096Z,929.63
2023-03-18T11:40:10.017Z,929.63
2023-03-18T11:41:10.013Z,929.62
2023-03-18T11:42:10.024Z,929.62
2023-03-18T11:43:10.617Z,929.64
2023-03-18T11:44:09.959Z,929.66
2023-03-18T11:45:09.931Z,929.64
2023-03-18T11:46:10.024Z,929.63
2023-03-18T11:47:09.962Z,929.63
2023-03-18T11:48:09.877Z,929.62
2023-03-18T11:49:10.084Z,929.62
2023-03-18T11:50:10.053Z,929.65
2023-03-18T11:51:09.969Z,929.68
2023-03-18T11:52:09.876Z,929.64
2023-03-18T11:53:09.972Z,929.64
2023-03-18T11:54:09.875Z,929.64
2023-03-18T11:55:09.880Z,929.65
2023-03-18T11:56:09.886Z,929.63
2023-03-18T11:57:09.810Z,929.63
2023-03-18T11:58:09.837Z,929.62
2023-03-18T11:59:09.934Z,929.65
2023-03-18T12:00:09.923Z,929.70
2023-03-18T12:01:09.824Z,929.67
2023-03-18T12:02:09.964Z,929.67
2023-03-18T12:03:09.744Z,929.68
2023-03-18T12:04:09.734Z,929.68
2023-03-18T12:05:09.834Z,929.64
2023-03-18T12:06:09.783Z,929.66
2023-03-18T12:07:09.715Z,929.64
2023-03-18T12:08:09.778Z,929.62
2023-03-18T12:09:09.628Z,929.59
2023-03-18T12:10:09.736Z,929.67
2023-03-18T12:11:09.691Z,929.67
2023-03-18T12:12:09.863Z,929.62
2023-03-18T12:13:09.666Z,929.59
2023-03-18T12:14:09.771Z,929.61
2023-03-18T12:15:09.712Z,929.63
2023-03-18T12:16:09.648Z,929.60
2023-03-18T12:17:09.676Z,929.63
2023-03-18T12:18:09.681Z,929.65
2023-03-18T12:19:09.540Z,929.64
2023-03-18T12:20:09.545Z,929.64
2023-03-18T12:21:09.506Z,929.63
2023-03-18T12:22:09.661Z,929.65
2023-03-18T12:23:09.622Z,929.64
2023-03-18T12:24:09.519Z,929.64
2023-03-18T12:25:09.580Z,929.63
2023-03-18T12:26:09.660Z,929.63
2023-03-18T12:27:09.435Z,929.62
2023-03-18T12:28:09.551Z,929.64